Time;durP1;ratioP1;P1;durP2;ratioP2;P2;SDS_P1;SDS_P2;PMS_P1;PMS_P2;Temp;Humidity;BMP_temperature;BMP_pressure;BME280_temperature;BME280_humidity;BME280_pressure;Samples;Min_cycle;Max_cycle;Signal;HPM_P1;HPM_P2
2023/01/15 00:01:24;;;;;;;1.67;0.50;;;;;;;10.97;100.00;98347.13;5010185;28;20045;-84
2023/01/15 00:03:53;;;;;;;0.73;0.57;;;;;;;10.96;100.00;98343.69;5013022;28;20088;-86
2023/01/15 00:06:23;;;;;;;0.45;0.30;;;;;;;10.90;100.00;98343.75;5013141;28;20483;-83
2023/01/15 00:08:53;;;;;;;1.17;0.52;;;;;;;10.91;100.00;98337.72;5010733;28;20065;-88
2023/01/15 00:11:23;;;;;;;0.95;0.50;;;;;;;10.91;100.00;98335.13;5009379;28;20843;-87
2023/01/15 00:13:52;;;;;;;1.38;0.70;;;;;;;10.92;100.00;98336.84;5011460;28;20048;-85
2023/01/15 00:16:22;;;;;;;0.75;0.43;;;;;;;10.94;100.00;98322.16;5008613;28;20052;-84
2023/01/15 00:18:54;;;;;;;0.63;0.38;;;;;;;10.98;100.00;98344.53;5010554;28;20053;-84
2023/01/15 00:21:23;;;;;;;0.45;0.30;;;;;;;11.00;100.00;98341.94;5014176;28;20117;-86
2023/01/15 00:29:27;;;;;;;0.65;0.40;;;;;;;11.13;100.00;98356.44;5007783;28;20523;-87
2023/01/15 00:31:58;;;;;;;1.30;0.40;;;;;;;11.15;98.33;98336.59;5007446;28;20703;-83
2023/01/15 00:34:27;;;;;;;0.52;0.40;;;;;;;11.17;96.17;98339.16;5007276;28;20046;-80
2023/01/15 00:36:56;;;;;;;0.68;0.40;;;;;;;11.19;96.50;98343.44;5007075;28;20058;-86
2023/01/15 00:39:27;;;;;;;0.40;0.30;;;;;;;11.21;97.37;98346.88;5005736;28;20186;-85
2023/01/15 00:41:56;;;;;;;4.30;0.68;;;;;;;11.24;97.28;98338.22;5007177;28;20132;-84
2023/01/15 00:44:24;;;;;;;0.90;0.55;;;;;;;11.25;96.21;98338.19;5006082;28;20061;-82
2023/01/15 00:46:53;;;;;;;0.57;0.45;;;;;;;11.26;95.84;98329.53;5002939;28;20042;-81
2023/01/15 00:49:21;;;;;;;1.23;0.60;;;;;;;11.27;96.43;98340.75;5005983;28;20054;-81
2023/01/15 00:51:50;;;;;;;0.55;0.40;;;;;;;11.28;96.05;98342.47;5007738;28;20699;-86
2023/01/15 00:54:18;;;;;;;0.68;0.43;;;;;;;11.27;96.42;98339.03;5000829;28;20045;-84
2023/01/15 00:56:49;;;;;;;0.98;0.60;;;;;;;11.27;97.01;98335.56;5006598;28;20065;-83
2023/01/15 00:59:17;;;;;;;0.45;0.30;;;;;;;11.26;96.17;98333.88;5006168;28;20492;-83
2023/01/15 01:01:46;;;;;;;1.52;0.52;;;;;;;11.25;96.47;98333.03;5008742;28;20509;-80
2023/01/15 01:04:14;;;;;;;1.15;0.43;;;;;;;11.24;97.11;98344.25;5008738;28;20049;-79
2023/01/15 01:06:43;;;;;;;0.65;0.38;;;;;;;11.24;99.00;98351.16;5012263;28;20046;-83
2023/01/15 01:09:14;;;;;;;0.60;0.30;;;;;;;11.22;96.98;98339.97;5008613;28;20078;-82
2023/01/15 01:11:43;;;;;;;0.40;0.28;;;;;;;11.22;97.55;98365.84;5015140;28;20046;-83
2023/01/15 01:14:14;;;;;;;1.83;0.57;;;;;;;11.21;100.00;98382.25;5017392;28;20061;-83
2023/01/15 01:16:43;;;;;;;1.13;0.50;;;;;;;11.20;100.00;98396.06;5010021;28;20068;-84
2023/01/15 01:19:14;;;;;;;0.93;0.60;;;;;;;11.19;100.00;98394.34;5014512;28;20046;-85
2023/01/15 01:21:43;;;;;;;0.85;0.60;;;;;;;11.16;100.00;98399.56;5013496;28;20055;-80
2023/01/15 01:24:13;;;;;;;2.33;0.52;;;;;;;11.16;100.00;98400.44;5019358;28;20045;-82
2023/01/15 01:26:42;;;;;;;0.98;0.47;;;;;;;11.14;100.00;98398.72;5013250;28;20086;-86
2023/01/15 01:29:14;;;;;;;0.85;0.65;;;;;;;11.13;100.00;98397.00;5018088;28;20048;-82
2023/01/15 01:31:43;;;;;;;1.08;0.60;;;;;;;11.11;100.00;98386.69;5018050;28;20061;-87
2023/01/15 01:34:13;;;;;;;1.75;0.90;;;;;;;11.07;100.00;98398.78;5015587;28;20046;-82
2023/01/15 01:36:43;;;;;;;1.15;0.73;;;;;;;11.07;100.00;98416.06;5009292;28;20415;-81
2023/01/15 01:39:20;;;;;;;2.47;0.65;;;;;;;10.99;100.00;98429.03;5013717;28;20065;-84
2023/01/15 01:41:49;;;;;;;2.10;0.70;;;;;;;10.89;100.00;98448.13;5016598;28;20594;-83
2023/01/15 01:44:54;;;;;;;1.13;1.02;;;;;;;10.67;100.00;98453.50;5016783;28;20088;-84
2023/01/15 01:47:26;;;;;;;0.57;0.40;;;;;;;10.71;100.00;98448.28;5016087;28;20505;-86
2023/01/15 01:50:00;;;;;;;1.27;0.68;;;;;;;10.76;100.00;98456.84;5015861;28;20046;-85
2023/01/15 01:52:33;;;;;;;1.00;0.63;;;;;;;10.74;100.00;98464.63;5012944;28;20750;-82
2023/01/15 01:55:04;;;;;;;2.75;1.10;;;;;;;10.74;100.00;98454.28;5016778;28;20042;-83
2023/01/15 01:57:36;;;;;;;1.58;0.45;;;;;;;10.78;100.00;98439.59;5010798;28;20046;-85
2023/01/15 02:00:06;;;;;;;1.30;0.50;;;;;;;10.80;100.00;98427.50;5008627;28;20050;-80
2023/01/15 02:02:37;;;;;;;0.70;0.50;;;;;;;10.78;100.00;98418.91;5017153;28;20050;-83
2023/01/15 02:05:06;;;;;;;1.55;0.80;;;;;;;10.79;100.00;98426.66;5013017;28;20049;-77
2023/01/15 02:07:36;;;;;;;0.93;0.65;;;;;;;10.77;100.00;98428.41;5018530;28;20042;-86
2023/01/15 02:10:04;;;;;;;3.83;0.60;;;;;;;10.74;100.00;98423.22;5010319;28;20054;-84
2023/01/15 02:12:38;;;;;;;1.42;1.00;;;;;;;10.73;100.00;98425.84;5009458;28;20081;-83
2023/01/15 02:15:14;;;;;;;1.00;0.70;;;;;;;10.71;100.00;98422.41;5006373;28;20048;-85
2023/01/15 02:17:50;;;;;;;1.17;0.70;;;;;;;10.68;100.00;98424.16;5024934;28;20116;-83
2023/01/15 02:20:30;;;;;;;0.80;0.60;;;;;;;10.62;100.00;98418.19;5024855;28;20046;-85
2023/01/15 02:23:18;;;;;;;2.65;0.80;;;;;;;10.58;100.00;98417.38;5009378;28;20061;-81
2023/01/15 02:26:03;;;;;;;1.70;0.90;;;;;;;10.55;100.00;98430.28;4992651;28;20056;-81
2023/01/15 02:28:37;;;;;;;1.15;0.70;;;;;;;10.52;100.00;98424.31;5007264;28;20100;-83
2023/01/15 02:31:12;;;;;;;1.15;0.60;;;;;;;10.48;100.00;98436.38;5008526;28;20049;-83
2023/01/15 02:33:47;;;;;;;0.50;0.50;;;;;;;10.46;100.00;98441.56;5009262;28;20085;-82
2023/01/15 02:36:20;;;;;;;1.20;0.90;;;;;;;10.43;100.00;98438.16;5012119;28;20632;-82
2023/01/15 02:38:52;;;;;;;1.88;0.73;;;;;;;10.39;100.00;98447.66;5010604;28;20084;-82
2023/01/15 02:41:26;;;;;;;2.97;1.88;;;;;;;10.38;100.00;98452.84;5005897;28;20050;-81
2023/01/15 02:43:58;;;;;;;0.65;0.40;;;;;;;10.34;100.00;98445.97;5007786;28;20046;-80
2023/01/15 02:46:32;;;;;;;3.15;0.93;;;;;;;10.31;100.00;98453.72;5000569;28;20089;-80
2023/01/15 02:49:04;;;;;;;1.15;0.70;;;;;;;10.26;100.00;98452.03;5007017;28;20494;-80
2023/01/15 02:51:37;;;;;;;1.38;0.70;;;;;;;10.22;100.00;98450.31;5005143;28;20153;-80
2023/01/15 02:54:10;;;;;;;1.17;0.60;;;;;;;10.18;100.00;98464.13;5006917;28;20052;-77
2023/01/15 02:56:41;;;;;;;1.60;0.95;;;;;;;10.15;100.00;98455.53;5005225;28;20518;-77
2023/01/15 02:59:16;;;;;;;1.63;0.90;;;;;;;10.11;100.00;98457.28;5006487;28;20048;-77
2023/01/15 03:01:48;;;;;;;2.80;0.75;;;;;;;10.09;100.00;98461.59;5007103;28;20053;-77
2023/01/15 03:04:23;;;;;;;2.85;1.27;;;;;;;10.06;100.00;98466.78;5008585;28;20041;-78
2023/01/15 03:06:57;;;;;;;2.08;1.23;;;;;;;10.01;100.00;98461.63;5008388;28;20046;-77
2023/01/15 03:09:29;;;;;;;2.75;0.60;;;;;;;9.97;100.00;98464.25;5005923;28;20064;-78
2023/01/15 03:12:05;;;;;;;2.07;0.63;;;;;;;9.94;100.00;98469.41;5008675;28;20562;-81
2023/01/15 03:14:39;;;;;;;3.03;1.23;;;;;;;9.92;100.00;98461.69;5009922;28;20042;-84
2023/01/15 03:17:13;;;;;;;4.78;1.45;;;;;;;9.93;100.00;98472.88;5009791;28;20054;-83
2023/01/15 03:19:49;;;;;;;3.72;2.58;;;;;;;9.95;100.00;98471.13;5012233;28;20054;-80
2023/01/15 03:22:24;;;;;;;4.80;2.88;;;;;;;9.95;100.00;98477.16;5017817;28;20141;-85
2023/01/15 03:24:55;;;;;;;4.82;2.20;;;;;;;9.96;100.00;98494.34;5011091;28;20521;-81
2023/01/15 03:27:24;;;;;;;5.93;2.28;;;;;;;9.97;100.00;98482.31;5015877;28;20099;-80
2023/01/15 03:29:59;;;;;;;4.65;2.53;;;;;;;9.98;100.00;98478.88;5007551;28;20077;-80
2023/01/15 03:32:30;;;;;;;5.20;2.80;;;;;;;9.95;100.00;98492.66;5009403;28;20092;-78
2023/01/15 03:34:59;;;;;;;4.28;2.15;;;;;;;9.94;100.00;98497.81;5007152;28;20054;-81
2023/01/15 03:37:29;;;;;;;7.22;2.40;;;;;;;9.87;100.00;98507.31;5007270;28;20088;-79
2023/01/15 03:40:00;;;;;;;4.35;2.55;;;;;;;9.88;100.00;98508.19;5010020;28;20085;-80
2023/01/15 03:42:46;;;;;;;4.63;2.40;;;;;;;9.90;100.00;98519.38;5006950;28;20049;-81
2023/01/15 03:45:24;;;;;;;5.05;2.92;;;;;;;9.93;100.00;98516.78;5008950;28;20050;-80
2023/01/15 03:48:02;;;;;;;5.72;2.38;;;;;;;9.96;100.00;98521.94;5004929;28;20054;-78
2023/01/15 03:50:38;;;;;;;4.97;2.20;;;;;;;10.00;100.00;98527.06;5006621;28;20301;-79
2023/01/15 03:53:16;;;;;;;5.28;2.47;;;;;;;10.03;100.00;98524.50;5007920;28;20054;-78
2023/01/15 03:55:52;;;;;;;6.25;2.65;;;;;;;10.06;100.00;98531.38;5004224;28;20050;-76
2023/01/15 03:58:27;;;;;;;6.40;3.13;;;;;;;10.07;100.00;98527.91;5009025;28;20053;-77
2023/01/15 04:01:00;;;;;;;4.45;2.50;;;;;;;10.08;100.00;98534.81;5005881;28;20460;-77
2023/01/15 04:03:31;;;;;;;4.55;2.10;;;;;;;10.11;100.00;98539.09;5008238;28;20065;-79
2023/01/15 04:06:02;;;;;;;4.85;2.30;;;;;;;10.11;100.00;98531.34;5005473;28;20046;-76
2023/01/15 04:08:34;;;;;;;5.72;2.33;;;;;;;10.13;100.00;98532.22;5004375;28;20056;-77
2023/01/15 04:11:03;;;;;;;3.75;2.38;;;;;;;10.15;100.00;98528.75;5005323;28;20085;-75
2023/01/15 04:13:32;;;;;;;4.22;2.50;;;;;;;10.15;100.00;98525.31;5004326;28;20046;-79
2023/01/15 04:16:03;;;;;;;5.80;2.35;;;;;;;10.15;100.00;98530.47;5004807;28;20500;-79
2023/01/15 04:18:31;;;;;;;5.18;3.17;;;;;;;10.15;100.00;98533.91;5006684;28;20053;-74
2023/01/15 04:21:00;;;;;;;19.88;11.02;;;;;;;10.17;100.00;98539.94;5001582;28;20054;-79
2023/01/15 04:23:29;;;;;;;8.65;4.68;;;;;;;10.18;100.00;98541.66;4995083;28;20042;-79
2023/01/15 04:25:58;;;;;;;4.97;3.70;;;;;;;10.19;100.00;98553.72;4999522;28;20050;-79
2023/01/15 04:28:27;;;;;;;4.82;2.58;;;;;;;10.22;100.00;98548.53;5003039;28;20053;-77
2023/01/15 04:30:58;;;;;;;4.72;2.40;;;;;;;10.22;100.00;98553.69;5003498;28;20046;-80
2023/01/15 04:33:28;;;;;;;3.88;2.22;;;;;;;10.19;100.00;98548.56;5001354;28;20076;-79
2023/01/15 04:36:00;;;;;;;5.10;1.92;;;;;;;10.14;100.00;98559.75;5004161;28;20049;-78
2023/01/15 04:38:29;;;;;;;2.20;1.50;;;;;;;10.13;100.00;98556.31;5006749;28;20072;-80
2023/01/15 04:46:30;;;;;;;2.92;1.70;;;;;;;10.22;100.00;98545.94;5006265;28;20049;-77
2023/01/15 04:49:01;;;;;;;3.60;1.70;;;;;;;10.22;100.00;98542.50;5003613;28;20061;-78
2023/01/15 04:51:29;;;;;;;0.65;0.40;;;;;;;10.21;100.00;98551.97;5006487;28;20050;-77
2023/01/15 04:54:00;;;;;;;1.70;0.73;;;;;;;10.30;100.00;98551.09;5004662;28;20704;-77
2023/01/15 04:56:29;;;;;;;1.70;0.90;;;;;;;10.33;100.00;98542.47;5007115;28;20600;-77
2023/01/15 04:59:00;;;;;;;0.70;0.60;;;;;;;10.35;100.00;98535.56;5000850;28;20080;-76
2023/01/15 05:01:28;;;;;;;1.25;0.90;;;;;;;10.43;100.00;98536.41;5003477;28;20141;-79
2023/01/15 05:03:57;;;;;;;1.20;0.70;;;;;;;10.49;99.08;98538.97;5006063;28;20046;-78
2023/01/15 05:06:27;;;;;;;1.90;0.52;;;;;;;10.55;100.00;98530.28;5008322;28;20404;-79
2023/01/15 05:08:56;;;;;;;0.77;0.60;;;;;;;10.56;100.00;98530.28;5003243;28;20064;-76
2023/01/15 05:11:25;;;;;;;1.15;0.60;;;;;;;10.61;98.74;98535.44;5002793;28;20054;-76
2023/01/15 05:13:54;;;;;;;1.23;0.60;;;;;;;10.64;100.00;98531.09;5003538;28;20531;-76
2023/01/15 05:16:24;;;;;;;0.40;0.40;;;;;;;10.65;100.00;98527.66;5002112;28;20116;-77
2023/01/15 05:18:53;;;;;;;1.27;0.82;;;;;;;10.67;97.56;98525.91;5003145;28;20054;-77
2023/01/15 05:21:24;;;;;;;1.58;0.70;;;;;;;10.67;94.07;98537.97;5000887;28;20064;-78
2023/01/15 05:23:56;;;;;;;0.90;0.50;;;;;;;10.65;95.50;98529.34;5007354;28;20511;-76
2023/01/15 05:26:25;;;;;;;1.03;0.53;;;;;;;10.67;97.82;98525.91;5000603;28;20050;-76
2023/01/15 05:28:55;;;;;;;1.05;0.70;;;;;;;10.67;93.15;98525.03;5002331;28;20614;-77
2023/01/15 05:31:25;;;;;;;0.68;0.32;;;;;;;10.71;92.61;98534.50;5005696;28;20079;-77
2023/01/15 05:33:55;;;;;;;0.85;0.40;;;;;;;10.73;92.40;98531.91;5005003;28;20078;-76
2023/01/15 05:36:25;;;;;;;0.52;0.47;;;;;;;10.72;89.46;98536.22;4997835;28;20598;-77
2023/01/15 05:38:56;;;;;;;0.50;0.40;;;;;;;10.74;88.21;98538.78;5008636;28;20062;-76
2023/01/15 05:44:11;;;;;;;0.88;0.30;;;;;;;10.64;97.16;98536.25;5004550;28;20061;-76
2023/01/15 05:46:42;;;;;;;0.85;0.47;;;;;;;10.62;100.00;98538.00;5006754;28;20454;-78
2023/01/15 05:49:12;;;;;;;1.20;0.47;;;;;;;10.60;100.00;98539.72;5006270;28;20126;-79
2023/01/15 05:51:41;;;;;;;0.40;0.20;;;;;;;10.51;92.58;98529.44;5007629;28;20042;-82
2023/01/15 05:54:15;;;;;;;0.20;0.20;;;;;;;10.60;92.83;98538.88;4997285;28;20054;-79
2023/01/15 05:56:44;;;;;;;0.57;0.30;;;;;;;10.62;90.11;98529.38;5010724;28;20046;-80
2023/01/15 05:59:14;;;;;;;0.22;0.22;;;;;;;10.65;94.81;98538.00;5002960;28;20049;-79
2023/01/15 06:01:43;;;;;;;0.63;0.30;;;;;;;10.66;95.73;98534.53;5007243;28;20061;-80
2023/01/15 06:04:14;;;;;;;1.05;0.40;;;;;;;10.66;97.00;98534.53;5010962;28;20052;-78
2023/01/15 06:06:43;;;;;;;0.32;0.20;;;;;;;10.64;96.05;98533.66;5010812;28;20050;-79
2023/01/15 06:09:13;;;;;;;0.50;0.30;;;;;;;10.63;97.48;98529.38;5007493;28;20061;-79
2023/01/15 06:11:42;;;;;;;0.95;0.30;;;;;;;10.63;98.82;98513.88;5001292;28;20194;-78
2023/01/15 06:14:12;;;;;;;3.20;0.25;;;;;;;10.63;95.97;98519.03;5008762;28;20101;-79
2023/01/15 06:16:41;;;;;;;0.60;0.30;;;;;;;10.63;94.34;98523.34;5008539;28;20488;-80
2023/01/15 06:19:17;;;;;;;0.20;0.20;;;;;;;10.65;96.22;98519.00;5006959;28;20411;-77
2023/01/15 06:21:46;;;;;;;1.85;0.00;;;;;;;10.63;94.63;98526.78;5009739;28;20050;-79
2023/01/15 06:24:17;;;;;;;0.40;0.20;;;;;;;10.61;92.09;98505.25;5007675;28;20483;-78
2023/01/15 06:26:45;;;;;;;0.25;0.20;;;;;;;10.60;91.29;98508.69;5003087;28;20133;-78
2023/01/15 06:29:17;;;;;;;2.75;0.30;;;;;;;10.60;94.71;98503.50;5009709;28;20057;-79
2023/01/15 06:31:46;;;;;;;0.37;0.20;;;;;;;10.58;95.18;98501.81;5002487;28;20078;-78
2023/01/15 06:34:14;;;;;;;0.22;0.15;;;;;;;10.58;94.05;98496.63;5007905;28;20050;-81
2023/01/15 06:36:43;;;;;;;0.30;0.20;;;;;;;10.57;93.71;98495.78;5002349;28;20065;-80
2023/01/15 06:39:11;;;;;;;0.70;0.40;;;;;;;10.58;94.57;98499.22;5002536;28;20134;-81
2023/01/15 06:47:21;;;;;;;0.75;0.40;;;;;;;10.45;100.00;98508.81;5004702;28;20104;-79
2023/01/15 06:49:50;;;;;;;0.20;0.20;;;;;;;10.35;100.00;98501.97;5008107;28;20050;-82
2023/01/15 06:52:19;;;;;;;1.67;0.70;;;;;;;10.32;100.00;98507.16;5018231;28;20096;-81
2023/01/15 06:54:47;;;;;;;2.63;1.23;;;;;;;10.26;100.00;98505.41;5006208;28;20061;-79
2023/01/15 06:57:19;;;;;;;0.22;0.22;;;;;;;10.07;94.51;98533.06;5007749;28;20088;-78
2023/01/15 06:59:48;;;;;;;0.55;0.20;;;;;;;10.15;78.99;98505.50;5008721;28;20085;-79
2023/01/15 07:02:17;;;;;;;0.03;0.03;;;;;;;10.26;78.89;98547.66;5009821;28;20438;-83
2023/01/15 07:04:46;;;;;;;1.27;0.05;;;;;;;10.31;76.94;98526.09;5009845;28;20116;-78
2023/01/15 07:07:15;;;;;;;0.10;0.08;;;;;;;10.27;76.25;98520.94;5002036;28;20045;-79
2023/01/15 07:09:44;;;;;;;0.00;0.00;;;;;;;10.29;86.85;98517.53;5009416;28;20054;-81
2023/01/15 07:12:12;;;;;;;0.10;0.00;;;;;;;10.24;87.17;98513.19;5003474;28;20058;-82
2023/01/15 07:14:43;;;;;;;0.00;0.00;;;;;;;10.12;85.29;98515.81;5008677;28;20050;-82
2023/01/15 07:17:12;;;;;;;0.10;0.00;;;;;;;10.09;88.87;98521.00;5008238;28;20133;-78
2023/01/15 07:19:41;;;;;;;0.13;0.00;;;;;;;10.08;91.07;98524.47;5002479;28;20062;-81
2023/01/15 07:22:11;;;;;;;0.28;0.00;;;;;;;10.01;92.85;98520.16;5006930;28;20050;-79
2023/01/15 07:24:40;;;;;;;0.20;0.10;;;;;;;9.92;91.33;98517.63;5007643;28;20555;-79
2023/01/15 07:27:08;;;;;;;0.55;0.00;;;;;;;9.94;92.96;98503.88;5006263;28;20061;-80
2023/01/15 07:29:37;;;;;;;0.10;0.10;;;;;;;9.94;93.50;98505.56;5007136;28;20141;-79
2023/01/15 07:32:07;;;;;;;0.00;0.00;;;;;;;9.92;93.37;98497.84;5004637;28;20053;-79
2023/01/15 07:34:36;;;;;;;2.58;0.17;;;;;;;9.93;97.63;98498.69;5004300;28;20080;-78
2023/01/15 07:37:05;;;;;;;0.03;0.00;;;;;;;9.90;93.17;98498.72;5007456;28;20057;-79
2023/01/15 07:39:33;;;;;;;0.00;0.00;;;;;;;9.89;98.24;98497.00;5004517;28;20058;-80
2023/01/15 07:50:22;;;;;;;0.10;0.10;;;;;;;9.84;98.34;98489.25;5006096;28;20064;-78
2023/01/15 07:52:51;;;;;;;0.00;0.00;;;;;;;9.80;91.58;98496.19;5011613;28;20046;-79
2023/01/15 07:55:19;;;;;;;0.10;0.08;;;;;;;9.84;98.02;98494.41;5008043;28;20551;-79
2023/01/15 07:57:48;;;;;;;0.00;0.00;;;;;;;9.78;81.73;98497.91;5011004;28;20038;-78
2023/01/15 08:00:20;;;;;;;0.00;0.00;;;;;;;9.86;82.96;98501.28;5007300;28;20511;-78
2023/01/15 08:02:50;;;;;;;0.10;0.00;;;;;;;9.92;85.56;98486.63;5008699;28;20543;-78
2023/01/15 08:05:19;;;;;;;0.00;0.00;;;;;;;9.98;82.33;98478.88;5003811;28;20643;-77
2023/01/15 08:07:48;;;;;;;1.92;0.10;;;;;;;10.05;84.24;98475.38;5009546;28;20109;-79
2023/01/15 08:10:18;;;;;;;0.38;0.00;;;;;;;10.11;96.87;98482.25;5006707;28;20054;-77
2023/01/15 08:15:39;;;;;;;0.00;0.00;;;;;;;10.14;82.85;98480.50;5011542;28;20161;-78
2023/01/15 08:18:09;;;;;;;0.00;0.00;;;;;;;10.21;80.95;98478.75;5008408;28;20049;-80
2023/01/15 08:20:38;;;;;;;0.00;0.00;;;;;;;10.26;82.24;98477.88;5009880;28;20515;-79
2023/01/15 08:23:06;;;;;;;0.73;0.17;;;;;;;10.31;79.80;98482.16;5009977;28;20111;-80
2023/01/15 08:25:35;;;;;;;0.35;0.10;;;;;;;10.36;77.75;98490.78;5007841;28;20042;-77
2023/01/15 08:28:04;;;;;;;0.05;0.05;;;;;;;10.41;75.68;98491.59;5003461;28;20597;-80
2023/01/15 08:30:32;;;;;;;0.63;0.20;;;;;;;10.42;78.31;98477.78;5009348;28;20104;-79
2023/01/15 08:33:02;;;;;;;0.13;0.10;;;;;;;10.42;81.46;98498.47;5004450;28;20046;-80
2023/01/15 08:35:33;;;;;;;0.55;0.05;;;;;;;10.40;77.17;98490.75;5009647;28;20252;-79
2023/01/15 08:38:05;;;;;;;0.20;0.10;;;;;;;10.41;72.56;98507.09;5008850;28;20827;-78
2023/01/15 08:40:35;;;;;;;0.20;0.10;;;;;;;10.45;68.76;98501.91;5011354;28;20042;-78
2023/01/15 08:43:03;;;;;;;0.08;0.00;;;;;;;10.54;69.13;98508.75;5008804;28;20045;-78
2023/01/15 08:45:32;;;;;;;0.10;0.10;;;;;;;10.55;71.37;98497.53;5008748;28;20042;-80
2023/01/15 08:48:00;;;;;;;0.13;0.00;;;;;;;10.56;68.65;98495.78;5005350;28;20558;-78
2023/01/15 08:50:29;;;;;;;0.10;0.05;;;;;;;10.49;68.32;98479.50;5006200;28;20057;-78
2023/01/15 08:52:59;;;;;;;0.85;0.20;;;;;;;10.52;68.47;98497.56;5007949;28;20105;-77
2023/01/15 08:55:28;;;;;;;1.65;0.13;;;;;;;10.52;69.24;98479.47;5007719;28;20112;-77
2023/01/15 08:57:56;;;;;;;0.17;0.00;;;;;;;10.56;68.89;98486.34;5007755;28;20048;-79
2023/01/15 09:00:33;;;;;;;0.10;0.10;;;;;;;10.53;67.43;98473.41;5000030;28;20053;-78
2023/01/15 09:03:01;;;;;;;0.10;0.10;;;;;;;10.53;67.13;98465.66;5005138;28;20053;-79
2023/01/15 09:05:30;;;;;;;0.00;0.00;;;;;;;10.53;66.64;98467.38;5005246;28;20069;-78
2023/01/15 09:08:00;;;;;;;0.32;0.10;;;;;;;10.55;65.76;98476.00;5006011;28;20522;-76
2023/01/15 09:10:29;;;;;;;0.43;0.10;;;;;;;10.55;66.57;98476.84;4997937;28;20045;-79
2023/01/15 09:13:00;;;;;;;0.20;0.10;;;;;;;10.57;66.49;98472.53;5005601;28;20049;-79
2023/01/15 09:15:29;;;;;;;1.95;0.10;;;;;;;10.55;66.13;98476.00;5005833;28;20490;-79
2023/01/15 09:17:59;;;;;;;0.30;0.05;;;;;;;10.57;68.27;98477.69;5006182;28;20061;-79
2023/01/15 09:20:28;;;;;;;0.08;0.00;;;;;;;10.57;66.06;98485.44;5005726;28;20142;-79
2023/01/15 09:22:56;;;;;;;1.35;0.10;;;;;;;10.55;68.81;98481.16;5011304;28;20049;-80
2023/01/15 09:25:26;;;;;;;0.10;0.05;;;;;;;10.49;68.60;98484.66;5011111;28;20588;-82
2023/01/15 09:27:57;;;;;;;0.32;0.17;;;;;;;10.46;70.92;98489.81;5011180;28;20042;-82
2023/01/15 09:30:26;;;;;;;0.28;0.10;;;;;;;10.41;71.75;98476.09;5010635;28;20049;-79
2023/01/15 09:32:54;;;;;;;0.10;0.08;;;;;;;10.39;74.01;98483.84;5007746;28;20054;-80
2023/01/15 09:35:23;;;;;;;0.22;0.10;;;;;;;10.27;75.60;98499.41;5017147;28;20050;-78
2023/01/15 09:37:53;;;;;;;0.20;0.10;;;;;;;10.27;80.65;98497.66;5008721;28;20046;-80
2023/01/15 09:40:47;;;;;;;0.00;0.00;;;;;;;10.19;79.11;98491.69;5007382;28;20169;-79
2023/01/15 09:43:25;;;;;;;0.95;0.20;;;;;;;10.16;80.09;98496.84;5009624;28;20559;-80
2023/01/15 09:46:00;;;;;;;0.75;0.10;;;;;;;10.06;81.85;98482.28;5007505;28;20050;-82
2023/01/15 09:48:50;;;;;;;2.47;0.10;;;;;;;9.99;84.48;98484.03;5010614;28;20064;-82
2023/01/15 09:51:29;;;;;;;0.00;0.00;;;;;;;9.94;86.08;98485.78;5009485;28;20503;-80
2023/01/15 09:54:23;;;;;;;0.08;0.00;;;;;;;9.88;89.13;98484.94;5012024;28;20057;-82
2023/01/15 09:56:55;;;;;;;0.75;0.20;;;;;;;9.79;91.76;98502.19;5007271;28;20045;-80
2023/01/15 09:59:32;;;;;;;0.05;0.05;;;;;;;9.67;85.59;98489.31;5007910;28;20144;-81
2023/01/15 10:02:04;;;;;;;0.82;0.15;;;;;;;9.71;86.68;98478.13;5011902;28;20049;-80
2023/01/15 10:04:41;;;;;;;0.10;0.00;;;;;;;9.61;84.97;98490.19;5009675;28;20046;-81
2023/01/15 10:07:17;;;;;;;0.20;0.10;;;;;;;9.64;85.84;98504.81;5011929;28;20038;-80
2023/01/15 10:09:48;;;;;;;0.30;0.22;;;;;;;9.65;84.13;98514.28;5007946;28;20049;-81
2023/01/15 10:12:38;;;;;;;0.30;0.10;;;;;;;9.63;82.86;98509.13;5009736;28;20483;-80
2023/01/15 10:15:23;;;;;;;1.30;0.10;;;;;;;9.62;82.18;98514.28;5009767;28;20381;-77
2023/01/15 10:17:53;;;;;;;0.00;0.00;;;;;;;9.63;79.94;98508.28;5008967;28;20046;-78
2023/01/15 10:20:51;;;;;;;0.28;0.05;;;;;;;9.63;78.61;98497.94;5005699;28;20049;-81
2023/01/15 10:23:39;;;;;;;0.00;0.00;;;;;;;9.66;80.27;98516.00;5011897;28;20046;-80
2023/01/15 10:26:24;;;;;;;0.00;0.00;;;;;;;9.66;81.38;98531.50;5013449;28;20054;-79
2023/01/15 10:29:03;;;;;;;0.00;0.00;;;;;;;9.60;83.68;98523.78;5014211;28;20084;-81
2023/01/15 10:31:51;;;;;;;0.05;0.00;;;;;;;9.60;82.96;98528.94;5010045;28;20540;-81
2023/01/15 10:34:44;;;;;;;0.00;0.00;;;;;;;9.58;82.02;98517.75;5008248;28;20042;-83
2023/01/15 10:37:15;;;;;;;;;;;;;;;9.56;83.45;98529.81;5004680;28;20053;-79
2023/01/15 10:40:06;;;;;;;0.47;0.20;;;;;;;9.54;82.74;98531.53;5008034;28;19932;-79
2023/01/15 10:42:48;;;;;;;0.28;0.00;;;;;;;9.50;81.36;98534.97;5009909;28;20043;-83
2023/01/15 10:45:23;;;;;;;0.00;0.00;;;;;;;9.50;83.01;98545.28;5010001;28;20062;-79
2023/01/15 10:47:57;;;;;;;0.63;0.10;;;;;;;9.47;84.29;98547.91;5007660;28;20071;-78
2023/01/15 10:50:27;;;;;;;0.00;0.00;;;;;;;9.42;84.44;98538.44;5007970;28;20586;-77
2023/01/15 10:53:07;;;;;;;0.73;0.00;;;;;;;9.39;84.75;98535.88;5010049;28;20057;-78
2023/01/15 10:55:40;;;;;;;0.85;0.00;;;;;;;9.43;85.16;98534.97;5007722;28;20070;-79
2023/01/15 10:58:17;;;;;;;0.10;0.00;;;;;;;9.46;85.93;98538.41;5007297;28;20100;-81
2023/01/15 11:00:53;;;;;;;0.00;0.00;;;;;;;9.33;87.35;98543.59;5005212;28;20041;-79
2023/01/15 11:03:26;;;;;;;0.17;0.10;;;;;;;9.36;88.48;98543.59;5009866;28;20139;-80
2023/01/15 11:05:55;;;;;;;0.00;0.00;;;;;;;9.24;88.86;98517.81;5008841;28;20045;-78
2023/01/15 11:08:29;;;;;;;0.00;0.00;;;;;;;9.30;89.27;98532.41;5009158;28;20117;-82
2023/01/15 11:10:58;;;;;;;0.00;0.00;;;;;;;9.31;88.46;98539.31;5009461;28;20178;-82
2023/01/15 11:21:51;;;;;;;0.10;0.10;;;;;;;9.19;90.07;98540.19;5000652;28;20081;-78
2023/01/15 11:24:20;;;;;;;0.00;0.00;;;;;;;9.25;92.01;98535.00;5007555;28;20045;-78
2023/01/15 11:26:51;;;;;;;0.10;0.00;;;;;;;9.26;90.76;98541.03;5009020;28;20049;-78
2023/01/15 11:29:32;;;;;;;0.20;0.10;;;;;;;9.15;91.57;98554.78;5008372;28;20050;-80
2023/01/15 11:32:02;;;;;;;0.00;0.00;;;;;;;9.17;92.24;98553.06;5011410;28;20085;-78
2023/01/15 11:34:31;;;;;;;0.10;0.00;;;;;;;9.18;92.67;98553.94;5007266;28;20054;-79
2023/01/15 11:37:04;;;;;;;0.32;0.00;;;;;;;9.16;96.41;98555.66;5007581;28;20642;-78
2023/01/15 11:39:31;;;;;;;;;;;;;;;9.10;94.12;98551.34;5004619;28;20068;-77
2023/01/15 11:53:16;;;;;;;0.77;0.10;;;;;;;9.03;93.99;98554.81;5007440;28;20108;-79
2023/01/15 11:55:53;;;;;;;0.00;0.00;;;;;;;8.98;95.29;98554.81;5007508;28;20081;-77
2023/01/15 11:58:23;;;;;;;0.00;0.00;;;;;;;9.06;98.60;98564.25;5007532;28;20048;-80
2023/01/15 12:00:55;;;;;;;0.47;0.10;;;;;;;8.92;96.94;98559.94;5009363;28;20050;-79
2023/01/15 12:03:29;;;;;;;0.00;0.00;;;;;;;9.01;98.09;98561.69;5002296;28;20205;-79
2023/01/15 12:06:04;;;;;;;1.15;0.10;;;;;;;8.99;98.31;98556.50;5004901;28;20996;-80
2023/01/15 12:08:46;;;;;;;0.55;0.08;;;;;;;8.89;98.45;98561.69;5007656;28;20539;-81
2023/01/15 12:11:39;;;;;;;0.10;0.00;;;;;;;8.87;100.00;98569.41;5008224;28;20551;-78
2023/01/15 12:14:45;;;;;;;0.00;0.00;;;;;;;8.85;100.00;98559.94;5006822;28;20500;-80
2023/01/15 12:17:30;;;;;;;0.32;0.13;;;;;;;8.86;100.00;98553.91;5003271;28;20079;-79
2023/01/15 12:20:11;;;;;;;0.00;0.00;;;;;;;8.82;100.00;98558.22;5004077;28;20050;-82
2023/01/15 12:22:53;;;;;;;0.00;0.00;;;;;;;8.83;100.00;98565.09;5007429;28;20168;-77
2023/01/15 12:25:33;;;;;;;0.77;0.00;;;;;;;8.83;100.00;98565.09;5004072;28;20053;-80
2023/01/15 12:28:08;;;;;;;0.03;0.00;;;;;;;8.75;100.00;98575.41;5007019;28;20046;-80
2023/01/15 12:30:46;;;;;;;0.30;0.08;;;;;;;8.74;100.00;98567.66;5003715;28;20124;-78
2023/01/15 12:33:24;;;;;;;0.00;0.00;;;;;;;8.75;100.00;98569.38;5002629;28;20060;-78
2023/01/15 12:35:59;;;;;;;0.05;0.00;;;;;;;8.66;100.00;98562.50;5008214;28;20415;-80
2023/01/15 12:38:42;;;;;;;0.00;0.00;;;;;;;8.71;100.00;98558.19;5008376;28;20050;-78
2023/01/15 12:41:14;;;;;;;0.25;0.00;;;;;;;8.72;100.00;98569.38;5004735;28;20046;-77
2023/01/15 12:46:34;;;;;;;0.63;0.10;;;;;;;8.66;100.00;98552.19;5007343;28;20061;-79
2023/01/15 12:49:10;;;;;;;0.00;0.00;;;;;;;8.72;100.00;98559.91;5004541;28;20065;-78
2023/01/15 12:51:49;;;;;;;0.85;0.00;;;;;;;8.71;100.00;98554.78;5007802;28;20117;-80